sensor_id;sensor_type;location;lat;lon;timestamp;pressure;altitude;pressure_sealevel;temperature;humidity
29063;BME280;71206;48.564;-123.458;2023-07-31T00:00:38;101261.80;;;24.39;41.35
29063;BME280;71206;48.564;-123.458;2023-07-31T00:03:03;101262.05;;;24.51;41.04
29063;BME280;71206;48.564;-123.458;2023-07-31T00:05:29;101257.16;;;24.56;40.30
29063;BME280;71206;48.564;-123.458;2023-07-31T00:07:59;101255.73;;;24.48;41.69
29063;BME280;71206;48.564;-123.458;2023-07-31T00:10:20;101254.62;;;24.72;41.07
29063;BME280;71206;48.564;-123.458;2023-07-31T00:12:46;101257.20;;;24.29;41.02
29063;BME280;71206;48.564;-123.458;2023-07-31T00:15:14;101251.99;;;24.42;41.00
29063;BME280;71206;48.564;-123.458;2023-07-31T00:17:38;101247.13;;;24.79;39.38
29063;BME280;71206;48.564;-123.458;2023-07-31T00:20:04;101242.39;;;25.06;38.30
29063;BME280;71206;48.564;-123.458;2023-07-31T00:22:30;101244.81;;;25.10;38.24
29063;BME280;71206;48.564;-123.458;2023-07-31T00:24:55;101249.01;;;23.36;40.69
29063;BME280;71206;48.564;-123.458;2023-07-31T00:27:21;101246.76;;;23.83;39.80
29063;BME280;71206;48.564;-123.458;2023-07-31T00:29:49;101249.44;;;24.71;39.48
29063;BME280;71206;48.564;-123.458;2023-07-31T00:32:12;101251.54;;;24.31;39.69
29063;BME280;71206;48.564;-123.458;2023-07-31T00:34:38;101249.33;;;24.47;38.83
29063;BME280;71206;48.564;-123.458;2023-07-31T00:37:04;101245.46;;;25.54;37.26
29063;BME280;71206;48.564;-123.458;2023-07-31T00:39:30;101247.58;;;24.96;39.79
29063;BME280;71206;48.564;-123.458;2023-07-31T00:41:55;101248.88;;;24.88;42.04
29063;BME280;71206;48.564;-123.458;2023-07-31T00:44:26;101246.87;;;24.66;42.79
29063;BME280;71206;48.564;-123.458;2023-07-31T00:46:46;101250.52;;;23.99;42.74
29063;BME280;71206;48.564;-123.458;2023-07-31T00:49:12;101251.88;;;23.87;44.04
29063;BME280;71206;48.564;-123.458;2023-07-31T00:51:38;101250.23;;;24.36;43.78
29063;BME280;71206;48.564;-123.458;2023-07-31T00:54:04;101249.94;;;24.19;42.54
29063;BME280;71206;48.564;-123.458;2023-07-31T00:56:29;101250.09;;;24.19;42.43
29063;BME280;71206;48.564;-123.458;2023-07-31T00:58:56;101252.84;;;24.04;43.40
29063;BME280;71206;48.564;-123.458;2023-07-31T01:01:21;101252.43;;;23.95;43.56
29063;BME280;71206;48.564;-123.458;2023-07-31T01:03:46;101250.99;;;23.73;43.28
29063;BME280;71206;48.564;-123.458;2023-07-31T01:06:18;101244.64;;;24.47;41.38
29063;BME280;71206;48.564;-123.458;2023-07-31T01:08:42;101242.96;;;24.78;39.73
29063;BME280;71206;48.564;-123.458;2023-07-31T01:11:09;101244.14;;;24.78;38.83
29063;BME280;71206;48.564;-123.458;2023-07-31T01:13:29;101243.78;;;24.26;42.30
29063;BME280;71206;48.564;-123.458;2023-07-31T01:15:55;101243.17;;;24.88;41.55
29063;BME280;71206;48.564;-123.458;2023-07-31T01:18:20;101244.58;;;24.61;41.41
29063;BME280;71206;48.564;-123.458;2023-07-31T01:21:08;101243.07;;;24.72;39.81
29063;BME280;71206;48.564;-123.458;2023-07-31T01:23:26;101247.39;;;23.71;40.80
29063;BME280;71206;48.564;-123.458;2023-07-31T01:25:46;101242.47;;;24.85;37.27
29063;BME280;71206;48.564;-123.458;2023-07-31T01:28:07;101241.73;;;24.72;36.34
29063;BME280;71206;48.564;-123.458;2023-07-31T01:30:41;101237.75;;;25.60;33.61
29063;BME280;71206;48.564;-123.458;2023-07-31T01:32:56;101234.63;;;25.45;34.39
29063;BME280;71206;48.564;-123.458;2023-07-31T01:35:21;101238.25;;;24.32;35.04
29063;BME280;71206;48.564;-123.458;2023-07-31T01:37:47;101241.56;;;24.66;34.84
29063;BME280;71206;48.564;-123.458;2023-07-31T01:40:13;101236.89;;;25.62;33.79
29063;BME280;71206;48.564;-123.458;2023-07-31T01:42:38;101240.29;;;24.83;33.99
29063;BME280;71206;48.564;-123.458;2023-07-31T01:45:05;101237.96;;;25.07;33.90
29063;BME280;71206;48.564;-123.458;2023-07-31T01:47:30;101239.55;;;25.86;35.31
29063;BME280;71206;48.564;-123.458;2023-07-31T01:49:55;101238.14;;;26.23;34.26
29063;BME280;71206;48.564;-123.458;2023-07-31T01:52:20;101238.04;;;25.94;34.28
29063;BME280;71206;48.564;-123.458;2023-07-31T01:54:46;101235.55;;;26.09;34.40
29063;BME280;71206;48.564;-123.458;2023-07-31T01:57:13;101238.55;;;26.32;35.52
29063;BME280;71206;48.564;-123.458;2023-07-31T01:59:38;101241.27;;;26.11;35.80
29063;BME280;71206;48.564;-123.458;2023-07-31T02:02:03;101241.88;;;26.02;35.03
29063;BME280;71206;48.564;-123.458;2023-07-31T02:04:29;101245.20;;;25.60;34.41
29063;BME280;71206;48.564;-123.458;2023-07-31T02:06:56;101244.12;;;26.57;32.29
29063;BME280;71206;48.564;-123.458;2023-07-31T02:09:21;101246.59;;;25.99;34.42
29063;BME280;71206;48.564;-123.458;2023-07-31T02:11:46;101251.62;;;25.43;37.75
29063;BME280;71206;48.564;-123.458;2023-07-31T02:14:12;101248.43;;;25.44;36.45
29063;BME280;71206;48.564;-123.458;2023-07-31T02:16:40;101261.96;;;24.04;38.45
29063;BME280;71206;48.564;-123.458;2023-07-31T02:19:04;101249.49;;;24.45;35.53
29063;BME280;71206;48.564;-123.458;2023-07-31T02:21:29;101250.91;;;23.21;32.82
29063;BME280;71206;48.564;-123.458;2023-07-31T02:23:55;101248.76;;;24.70;32.77
29063;BME280;71206;48.564;-123.458;2023-07-31T02:26:21;101248.19;;;24.14;32.64
29063;BME280;71206;48.564;-123.458;2023-07-31T02:28:46;101254.01;;;23.02;36.53
29063;BME280;71206;48.564;-123.458;2023-07-31T02:31:12;101252.77;;;23.90;35.83
29063;BME280;71206;48.564;-123.458;2023-07-31T02:33:37;101245.15;;;24.67;35.30
29063;BME280;71206;48.564;-123.458;2023-07-31T02:36:05;101252.01;;;23.18;35.00
29063;BME280;71206;48.564;-123.458;2023-07-31T02:38:28;101254.36;;;23.37;32.36
29063;BME280;71206;48.564;-123.458;2023-07-31T02:40:55;101248.63;;;22.73;32.66
29063;BME280;71206;48.564;-123.458;2023-07-31T02:43:20;101252.15;;;23.63;30.96
29063;BME280;71206;48.564;-123.458;2023-07-31T02:45:48;101253.05;;;22.53;32.55
29063;BME280;71206;48.564;-123.458;2023-07-31T02:48:11;101254.49;;;22.81;32.45
29063;BME280;71206;48.564;-123.458;2023-07-31T02:50:37;101255.55;;;22.60;32.31
29063;BME280;71206;48.564;-123.458;2023-07-31T02:53:08;101256.27;;;21.64;32.52
29063;BME280;71206;48.564;-123.458;2023-07-31T02:55:29;101253.81;;;21.72;33.52
29063;BME280;71206;48.564;-123.458;2023-07-31T02:57:55;101255.43;;;21.85;32.95
29063;BME280;71206;48.564;-123.458;2023-07-31T03:00:20;101257.02;;;22.22;32.25
29063;BME280;71206;48.564;-123.458;2023-07-31T03:02:47;101257.57;;;21.57;31.67
29063;BME280;71206;48.564;-123.458;2023-07-31T03:05:12;101261.46;;;21.36;32.32
29063;BME280;71206;48.564;-123.458;2023-07-31T03:07:38;101260.71;;;21.13;31.80
29063;BME280;71206;48.564;-123.458;2023-07-31T03:10:04;101262.21;;;21.51;31.67
29063;BME280;71206;48.564;-123.458;2023-07-31T03:12:29;101263.47;;;20.80;31.77
29063;BME280;71206;48.564;-123.458;2023-07-31T03:14:55;101265.47;;;20.76;32.08
29063;BME280;71206;48.564;-123.458;2023-07-31T03:17:21;101267.92;;;20.63;32.24
29063;BME280;71206;48.564;-123.458;2023-07-31T03:19:48;101266.66;;;21.29;31.55
29063;BME280;71206;48.564;-123.458;2023-07-31T03:22:12;101269.76;;;21.05;31.72
29063;BME280;71206;48.564;-123.458;2023-07-31T03:24:40;101269.59;;;20.79;31.96
29063;BME280;71206;48.564;-123.458;2023-07-31T03:27:05;101269.10;;;20.24;32.16
29063;BME280;71206;48.564;-123.458;2023-07-31T03:29:30;101270.50;;;20.70;31.86
29063;BME280;71206;48.564;-123.458;2023-07-31T03:32:01;101269.16;;;20.48;32.23
29063;BME280;71206;48.564;-123.458;2023-07-31T03:34:22;101277.30;;;19.84;32.91
29063;BME280;71206;48.564;-123.458;2023-07-31T03:36:49;101283.16;;;19.75;33.30
29063;BME280;71206;48.564;-123.458;2023-07-31T03:39:14;101284.19;;;19.72;33.25
29063;BME280;71206;48.564;-123.458;2023-07-31T03:41:40;101282.89;;;20.16;32.98
29063;BME280;71206;48.564;-123.458;2023-07-31T03:44:11;101289.47;;;19.99;33.55
29063;BME280;71206;48.564;-123.458;2023-07-31T03:46:31;101288.07;;;19.97;33.76
29063;BME280;71206;48.564;-123.458;2023-07-31T03:48:56;101278.11;;;20.02;33.42
29063;BME280;71206;48.564;-123.458;2023-07-31T03:51:26;101283.46;;;19.56;34.55
29063;BME280;71206;48.564;-123.458;2023-07-31T03:53:49;101285.23;;;19.38;34.61
29063;BME280;71206;48.564;-123.458;2023-07-31T03:56:14;101283.23;;;19.23;35.02
29063;BME280;71206;48.564;-123.458;2023-07-31T03:58:43;101282.47;;;18.90;35.19
29063;BME280;71206;48.564;-123.458;2023-07-31T04:01:06;101285.87;;;19.65;34.42
29063;BME280;71206;48.564;-123.458;2023-07-31T04:03:31;101282.57;;;19.51;34.23
29063;BME280;71206;48.564;-123.458;2023-07-31T04:05:58;101290.41;;;19.23;34.91
29063;BME280;71206;48.564;-123.458;2023-07-31T04:08:23;101293.28;;;19.39;34.78
29063;BME280;71206;48.564;-123.458;2023-07-31T04:10:48;101296.35;;;19.36;34.84
29063;BME280;71206;48.564;-123.458;2023-07-31T04:13:14;101293.70;;;19.33;35.12
29063;BME280;71206;48.564;-123.458;2023-07-31T04:15:41;101290.63;;;19.05;36.14
29063;BME280;71206;48.564;-123.458;2023-07-31T04:18:06;101293.83;;;18.70;38.90
29063;BME280;71206;48.564;-123.458;2023-07-31T04:20:31;101298.31;;;19.11;37.54
29063;BME280;71206;48.564;-123.458;2023-07-31T04:22:59;101296.34;;;18.70;37.69
29063;BME280;71206;48.564;-123.458;2023-07-31T04:25:23;101294.61;;;18.85;37.89
29063;BME280;71206;48.564;-123.458;2023-07-31T04:27:48;101296.63;;;19.22;37.64
29063;BME280;71206;48.564;-123.458;2023-07-31T04:30:15;101295.29;;;19.58;37.58
29063;BME280;71206;48.564;-123.458;2023-07-31T04:32:41;101295.19;;;19.59;37.72
29063;BME280;71206;48.564;-123.458;2023-07-31T04:35:07;101297.04;;;19.23;38.24
29063;BME280;71206;48.564;-123.458;2023-07-31T04:37:33;101290.91;;;19.72;37.42
29063;BME280;71206;48.564;-123.458;2023-07-31T04:39:58;101288.36;;;20.97;35.98
29063;BME280;71206;48.564;-123.458;2023-07-31T04:42:27;101290.31;;;20.01;36.76
29063;BME280;71206;48.564;-123.458;2023-07-31T04:44:50;101291.22;;;20.53;36.08
29063;BME280;71206;48.564;-123.458;2023-07-31T04:47:15;101293.10;;;20.07;37.10
29063;BME280;71206;48.564;-123.458;2023-07-31T04:49:41;101295.94;;;19.22;38.06
29063;BME280;71206;48.564;-123.458;2023-07-31T04:52:10;101297.50;;;19.16;39.38
29063;BME280;71206;48.564;-123.458;2023-07-31T04:54:33;101294.79;;;18.56;39.25
29063;BME280;71206;48.564;-123.458;2023-07-31T04:56:59;101297.03;;;19.45;38.71
29063;BME280;71206;48.564;-123.458;2023-07-31T04:59:24;101303.06;;;19.84;37.69
29063;BME280;71206;48.564;-123.458;2023-07-31T05:01:50;101294.62;;;18.32;39.62
29063;BME280;71206;48.564;-123.458;2023-07-31T05:04:19;101296.47;;;18.83;38.61
29063;BME280;71206;48.564;-123.458;2023-07-31T05:06:43;101296.92;;;19.73;37.41
29063;BME280;71206;48.564;-123.458;2023-07-31T05:09:09;101295.10;;;20.11;36.99
29063;BME280;71206;48.564;-123.458;2023-07-31T05:11:34;101291.80;;;20.46;36.23
29063;BME280;71206;48.564;-123.458;2023-07-31T05:14:00;101295.45;;;20.74;36.94
29063;BME280;71206;48.564;-123.458;2023-07-31T05:16:27;101293.08;;;20.55;35.75
29063;BME280;71206;48.564;-123.458;2023-07-31T05:18:51;101297.71;;;19.54;36.41
29063;BME280;71206;48.564;-123.458;2023-07-31T05:21:17;101293.62;;;19.88;35.90
29063;BME280;71206;48.564;-123.458;2023-07-31T05:23:43;101295.25;;;19.63;36.16
29063;BME280;71206;48.564;-123.458;2023-07-31T05:26:09;101291.91;;;20.20;35.85
29063;BME280;71206;48.564;-123.458;2023-07-31T05:28:36;101288.92;;;20.29;35.77
29063;BME280;71206;48.564;-123.458;2023-07-31T05:31:02;101287.28;;;20.96;36.46
29063;BME280;71206;48.564;-123.458;2023-07-31T05:33:32;101285.37;;;20.08;34.78
29063;BME280;71206;48.564;-123.458;2023-07-31T05:35:52;101285.04;;;20.54;34.86
29063;BME280;71206;48.564;-123.458;2023-07-31T05:38:18;101284.87;;;20.41;35.30
29063;BME280;71206;48.564;-123.458;2023-07-31T05:40:44;101285.47;;;20.08;35.64
29063;BME280;71206;48.564;-123.458;2023-07-31T05:43:09;101291.27;;;19.81;36.06
29063;BME280;71206;48.564;-123.458;2023-07-31T05:45:38;101292.16;;;19.55;36.51
29063;BME280;71206;48.564;-123.458;2023-07-31T05:48:02;101284.94;;;20.50;35.36
29063;BME280;71206;48.564;-123.458;2023-07-31T05:50:27;101283.50;;;20.05;35.83
29063;BME280;71206;48.564;-123.458;2023-07-31T05:52:58;101280.44;;;19.71;36.18
29063;BME280;71206;48.564;-123.458;2023-07-31T05:55:19;101281.88;;;19.64;36.78
29063;BME280;71206;48.564;-123.458;2023-07-31T05:57:48;101282.78;;;19.21;36.65
29063;BME280;71206;48.564;-123.458;2023-07-31T06:00:13;101288.53;;;19.19;37.19
29063;BME280;71206;48.564;-123.458;2023-07-31T06:02:36;101283.03;;;19.29;36.75
29063;BME280;71206;48.564;-123.458;2023-07-31T06:05:03;101282.95;;;19.77;36.80
29063;BME280;71206;48.564;-123.458;2023-07-31T06:07:27;101283.94;;;19.90;36.28
29063;BME280;71206;48.564;-123.458;2023-07-31T06:09:53;101289.22;;;19.25;37.49
29063;BME280;71206;48.564;-123.458;2023-07-31T06:12:19;101287.60;;;19.13;37.58
29063;BME280;71206;48.564;-123.458;2023-07-31T06:14:45;101288.80;;;19.70;37.53
29063;BME280;71206;48.564;-123.458;2023-07-31T06:17:11;101281.93;;;19.77;37.19
29063;BME280;71206;48.564;-123.458;2023-07-31T06:19:37;101284.52;;;19.71;36.53
29063;BME280;71206;48.564;-123.458;2023-07-31T06:22:03;101288.67;;;19.45;37.93
29063;BME280;71206;48.564;-123.458;2023-07-31T06:24:30;101280.51;;;20.09;35.72
29063;BME280;71206;48.564;-123.458;2023-07-31T06:26:56;101290.35;;;19.55;37.60
29063;BME280;71206;48.564;-123.458;2023-07-31T06:29:24;101285.32;;;19.85;35.83
29063;BME280;71206;48.564;-123.458;2023-07-31T06:31:46;101290.87;;;19.26;36.11
29063;BME280;71206;48.564;-123.458;2023-07-31T06:34:12;101286.33;;;18.70;36.43
29063;BME280;71206;48.564;-123.458;2023-07-31T06:36:37;101285.23;;;18.42;37.09
29063;BME280;71206;48.564;-123.458;2023-07-31T06:39:02;101287.19;;;17.83;37.94
29063;BME280;71206;48.564;-123.458;2023-07-31T06:41:27;101287.21;;;18.89;36.67
29063;BME280;71206;48.564;-123.458;2023-07-31T06:43:54;101287.30;;;18.46;37.05
29063;BME280;71206;48.564;-123.458;2023-07-31T06:46:17;101290.47;;;18.78;36.72
29063;BME280;71206;48.564;-123.458;2023-07-31T06:48:43;101290.41;;;18.51;37.52
29063;BME280;71206;48.564;-123.458;2023-07-31T06:51:08;101291.66;;;18.28;37.10
29063;BME280;71206;48.564;-123.458;2023-07-31T06:53:33;101293.78;;;18.99;36.90
29063;BME280;71206;48.564;-123.458;2023-07-31T06:55:57;101296.36;;;19.05;37.39
29063;BME280;71206;48.564;-123.458;2023-07-31T06:58:22;101295.72;;;19.29;37.32
29063;BME280;71206;48.564;-123.458;2023-07-31T07:00:48;101296.41;;;18.66;37.35
29063;BME280;71206;48.564;-123.458;2023-07-31T07:03:20;101295.06;;;18.10;38.04
29063;BME280;71206;48.564;-123.458;2023-07-31T07:05:41;101296.51;;;17.91;40.40
29063;BME280;71206;48.564;-123.458;2023-07-31T07:08:06;101296.13;;;17.95;41.86
29063;BME280;71206;48.564;-123.458;2023-07-31T07:10:32;101298.22;;;17.63;43.31
29063;BME280;71206;48.564;-123.458;2023-07-31T07:12:58;101290.71;;;18.39;40.50
29063;BME280;71206;48.564;-123.458;2023-07-31T07:15:23;101298.13;;;17.54;44.55
29063;BME280;71206;48.564;-123.458;2023-07-31T07:17:48;101297.79;;;17.00;46.29
29063;BME280;71206;48.564;-123.458;2023-07-31T07:20:13;101295.50;;;17.11;46.73
29063;BME280;71206;48.564;-123.458;2023-07-31T07:22:37;101297.07;;;16.64;47.78
29063;BME280;71206;48.564;-123.458;2023-07-31T07:25:02;101299.25;;;16.30;49.19
29063;BME280;71206;48.564;-123.458;2023-07-31T07:27:27;101299.04;;;16.43;49.34
29063;BME280;71206;48.564;-123.458;2023-07-31T07:29:51;101299.48;;;16.66;48.76
29063;BME280;71206;48.564;-123.458;2023-07-31T07:32:16;101298.66;;;16.83;46.89
29063;BME280;71206;48.564;-123.458;2023-07-31T07:34:43;101300.34;;;16.78;46.35
29063;BME280;71206;48.564;-123.458;2023-07-31T07:37:08;101300.95;;;16.57;45.71
29063;BME280;71206;48.564;-123.458;2023-07-31T07:39:32;101298.50;;;16.71;45.62
29063;BME280;71206;48.564;-123.458;2023-07-31T07:41:57;101299.99;;;16.61;46.01
29063;BME280;71206;48.564;-123.458;2023-07-31T07:44:26;101301.75;;;15.83;47.61
29063;BME280;71206;48.564;-123.458;2023-07-31T07:46:48;101305.35;;;16.54;46.42
29063;BME280;71206;48.564;-123.458;2023-07-31T07:49:12;101309.30;;;16.60;46.86
29063;BME280;71206;48.564;-123.458;2023-07-31T07:51:37;101307.76;;;16.88;47.92
29063;BME280;71206;48.564;-123.458;2023-07-31T07:54:04;101305.74;;;16.80;46.94
29063;BME280;71206;48.564;-123.458;2023-07-31T07:56:29;101307.27;;;15.78;49.53
29063;BME280;71206;48.564;-123.458;2023-07-31T07:58:54;101312.37;;;16.33;48.43
29063;BME280;71206;48.564;-123.458;2023-07-31T08:01:19;101315.64;;;15.02;53.58
29063;BME280;71206;48.564;-123.458;2023-07-31T08:03:42;101309.71;;;15.67;51.76
29063;BME280;71206;48.564;-123.458;2023-07-31T08:06:07;101304.75;;;15.91;52.16
29063;BME280;71206;48.564;-123.458;2023-07-31T08:08:32;101316.55;;;15.39;57.85
29063;BME280;71206;48.564;-123.458;2023-07-31T08:10:58;101318.99;;;15.39;59.15
29063;BME280;71206;48.564;-123.458;2023-07-31T08:13:23;101319.18;;;15.28;58.41
29063;BME280;71206;48.564;-123.458;2023-07-31T08:15:47;101317.87;;;15.16;58.63
29063;BME280;71206;48.564;-123.458;2023-07-31T08:18:12;101317.31;;;14.64;67.36
29063;BME280;71206;48.564;-123.458;2023-07-31T08:20:37;101323.30;;;14.89;66.76
29063;BME280;71206;48.564;-123.458;2023-07-31T08:23:03;101325.68;;;14.96;66.51
29063;BME280;71206;48.564;-123.458;2023-07-31T08:25:27;101325.20;;;15.15;64.14
29063;BME280;71206;48.564;-123.458;2023-07-31T08:27:59;101321.69;;;14.92;63.62
29063;BME280;71206;48.564;-123.458;2023-07-31T08:30:20;101320.99;;;14.77;63.90
29063;BME280;71206;48.564;-123.458;2023-07-31T08:32:43;101319.97;;;15.09;63.16
29063;BME280;71206;48.564;-123.458;2023-07-31T08:35:10;101316.62;;;14.97;65.05
29063;BME280;71206;48.564;-123.458;2023-07-31T08:37:35;101315.75;;;15.03;63.33
29063;BME280;71206;48.564;-123.458;2023-07-31T08:39:59;101317.77;;;14.50;64.58
29063;BME280;71206;48.564;-123.458;2023-07-31T08:42:25;101316.09;;;14.50;66.63
29063;BME280;71206;48.564;-123.458;2023-07-31T08:44:49;101314.09;;;14.72;63.03
29063;BME280;71206;48.564;-123.458;2023-07-31T08:47:14;101310.11;;;14.56;65.77
29063;BME280;71206;48.564;-123.458;2023-07-31T08:49:39;101308.42;;;14.58;66.08
29063;BME280;71206;48.564;-123.458;2023-07-31T08:52:04;101309.84;;;14.37;66.77
29063;BME280;71206;48.564;-123.458;2023-07-31T08:54:29;101309.62;;;14.22;67.77
29063;BME280;71206;48.564;-123.458;2023-07-31T08:56:54;101310.02;;;14.17;68.50
29063;BME280;71206;48.564;-123.458;2023-07-31T08:59:20;101313.15;;;14.82;65.78
29063;BME280;71206;48.564;-123.458;2023-07-31T09:01:48;101308.74;;;14.33;67.79
29063;BME280;71206;48.564;-123.458;2023-07-31T09:04:10;101304.96;;;13.68;71.13
29063;BME280;71206;48.564;-123.458;2023-07-31T09:06:35;101303.82;;;13.71;73.42
29063;BME280;71206;48.564;-123.458;2023-07-31T09:08:59;101303.22;;;13.72;74.26
29063;BME280;71206;48.564;-123.458;2023-07-31T09:11:26;101301.96;;;13.60;76.08
29063;BME280;71206;48.564;-123.458;2023-07-31T09:13:50;101300.53;;;13.79;72.94
29063;BME280;71206;48.564;-123.458;2023-07-31T09:16:15;101304.00;;;13.65;76.17
29063;BME280;71206;48.564;-123.458;2023-07-31T09:21:06;101299.94;;;14.09;72.69
29063;BME280;71206;48.564;-123.458;2023-07-31T09:23:42;101301.41;;;14.34;70.81
29063;BME280;71206;48.564;-123.458;2023-07-31T09:25:56;101302.04;;;14.40;69.81
29063;BME280;71206;48.564;-123.458;2023-07-31T09:28:20;101302.31;;;13.71;74.08
29063;BME280;71206;48.564;-123.458;2023-07-31T09:30:47;101304.63;;;13.67;74.66
29063;BME280;71206;48.564;-123.458;2023-07-31T09:33:10;101301.30;;;14.07;70.46
29063;BME280;71206;48.564;-123.458;2023-07-31T09:35:36;101305.19;;;14.11;72.16
29063;BME280;71206;48.564;-123.458;2023-07-31T09:38:05;101306.10;;;13.57;75.81
29063;BME280;71206;48.564;-123.458;2023-07-31T09:40:27;101307.35;;;12.96;82.38
29063;BME280;71206;48.564;-123.458;2023-07-31T09:42:51;101305.37;;;12.63;87.73
29063;BME280;71206;48.564;-123.458;2023-07-31T09:45:16;101305.37;;;13.11;83.24
29063;BME280;71206;48.564;-123.458;2023-07-31T09:47:46;101306.45;;;12.82;86.48
29063;BME280;71206;48.564;-123.458;2023-07-31T09:50:08;101312.15;;;13.38;77.86
29063;BME280;71206;48.564;-123.458;2023-07-31T09:52:32;101309.12;;;13.13;81.26
29063;BME280;71206;48.564;-123.458;2023-07-31T09:54:57;101310.30;;;13.30;81.40
29063;BME280;71206;48.564;-123.458;2023-07-31T09:57:23;101310.00;;;12.98;81.32
29063;BME280;71206;48.564;-123.458;2023-07-31T09:59:48;101313.69;;;13.43;79.69
29063;BME280;71206;48.564;-123.458;2023-07-31T10:02:18;101309.84;;;13.37;79.89
29063;BME280;71206;48.564;-123.458;2023-07-31T10:04:39;101311.83;;;12.83;82.62
29063;BME280;71206;48.564;-123.458;2023-07-31T10:07:03;101308.96;;;12.93;82.63
29063;BME280;71206;48.564;-123.458;2023-07-31T10:09:31;101312.37;;;13.10;80.70
29063;BME280;71206;48.564;-123.458;2023-07-31T10:11:59;101314.02;;;12.80;84.31
29063;BME280;71206;48.564;-123.458;2023-07-31T10:14:19;101314.12;;;12.99;83.87
29063;BME280;71206;48.564;-123.458;2023-07-31T10:16:43;101314.59;;;12.89;85.59
29063;BME280;71206;48.564;-123.458;2023-07-31T10:19:08;101310.38;;;12.88;82.96
29063;BME280;71206;48.564;-123.458;2023-07-31T10:21:33;101310.97;;;12.78;85.79
29063;BME280;71206;48.564;-123.458;2023-07-31T10:23:59;101315.22;;;12.57;87.25
29063;BME280;71206;48.564;-123.458;2023-07-31T10:26:24;101319.09;;;12.86;88.10
29063;BME280;71206;48.564;-123.458;2023-07-31T10:28:54;101316.33;;;13.00;82.92
29063;BME280;71206;48.564;-123.458;2023-07-31T10:31:14;101315.26;;;12.92;83.97
29063;BME280;71206;48.564;-123.458;2023-07-31T10:33:40;101320.65;;;12.33;90.25
29063;BME280;71206;48.564;-123.458;2023-07-31T10:36:14;101321.14;;;13.21;84.71
29063;BME280;71206;48.564;-123.458;2023-07-31T10:38:29;101323.50;;;12.93;82.26
29063;BME280;71206;48.564;-123.458;2023-07-31T10:43:27;101331.66;;;12.61;88.05
29063;BME280;71206;48.564;-123.458;2023-07-31T10:45:45;101332.49;;;12.55;90.78
29063;BME280;71206;48.564;-123.458;2023-07-31T10:48:14;101331.56;;;12.84;89.52
29063;BME280;71206;48.564;-123.458;2023-07-31T10:50:46;101330.71;;;12.91;90.37
29063;BME280;71206;48.564;-123.458;2023-07-31T10:53:00;101330.90;;;12.41;91.46
29063;BME280;71206;48.564;-123.458;2023-07-31T10:55:30;101330.99;;;12.31;92.00
29063;BME280;71206;48.564;-123.458;2023-07-31T10:57:51;101333.62;;;12.14;93.22
29063;BME280;71206;48.564;-123.458;2023-07-31T11:00:21;101335.98;;;12.02;97.86
29063;BME280;71206;48.564;-123.458;2023-07-31T11:02:41;101333.84;;;12.27;93.13
29063;BME280;71206;48.564;-123.458;2023-07-31T11:05:08;101333.14;;;12.25;93.75
29063;BME280;71206;48.564;-123.458;2023-07-31T11:09:56;101334.99;;;12.72;89.15
29063;BME280;71206;48.564;-123.458;2023-07-31T11:12:22;101336.06;;;12.20;94.28
29063;BME280;71206;48.564;-123.458;2023-07-31T11:14:53;101338.97;;;12.78;88.07
29063;BME280;71206;48.564;-123.458;2023-07-31T11:17:12;101336.02;;;12.67;85.40
29063;BME280;71206;48.564;-123.458;2023-07-31T11:19:38;101331.74;;;12.28;91.26
29063;BME280;71206;48.564;-123.458;2023-07-31T11:22:03;101335.47;;;11.90;95.30
29063;BME280;71206;48.564;-123.458;2023-07-31T11:24:28;101337.32;;;11.94;96.09
29063;BME280;71206;48.564;-123.458;2023-07-31T11:26:53;101335.14;;;11.93;94.26
29063;BME280;71206;48.564;-123.458;2023-07-31T11:29:18;101336.29;;;12.19;92.73
29063;BME280;71206;48.564;-123.458;2023-07-31T11:31:43;101340.78;;;11.59;97.00
29063;BME280;71206;48.564;-123.458;2023-07-31T11:34:08;101337.61;;;12.26;91.06
29063;BME280;71206;48.564;-123.458;2023-07-31T11:36:33;101343.88;;;11.73;95.46
29063;BME280;71206;48.564;-123.458;2023-07-31T11:39:07;101347.12;;;11.92;97.85
29063;BME280;71206;48.564;-123.458;2023-07-31T11:41:23;101350.29;;;11.32;100.00
29063;BME280;71206;48.564;-123.458;2023-07-31T11:43:48;101346.93;;;11.64;99.99
29063;BME280;71206;48.564;-123.458;2023-07-31T11:46:14;101345.41;;;11.59;100.00
29063;BME280;71206;48.564;-123.458;2023-07-31T11:48:41;101347.71;;;11.87;100.00
29063;BME280;71206;48.564;-123.458;2023-07-31T11:51:08;101348.30;;;11.23;100.00
29063;BME280;71206;48.564;-123.458;2023-07-31T11:53:33;101348.57;;;11.72;100.00
29063;BME280;71206;48.564;-123.458;2023-07-31T11:55:56;101348.22;;;12.07;100.00
29063;BME280;71206;48.564;-123.458;2023-07-31T11:58:20;101350.98;;;12.05;96.49
29063;BME280;71206;48.564;-123.458;2023-07-31T12:00:45;101349.76;;;11.92;96.63
29063;BME280;71206;48.564;-123.458;2023-07-31T12:03:11;101350.94;;;11.51;99.51
29063;BME280;71206;48.564;-123.458;2023-07-31T12:05:36;101348.41;;;11.65;98.76
29063;BME280;71206;48.564;-123.458;2023-07-31T12:08:01;101354.54;;;10.99;100.00
29063;BME280;71206;48.564;-123.458;2023-07-31T12:10:28;101356.09;;;11.33;100.00
29063;BME280;71206;48.564;-123.458;2023-07-31T12:13:00;101361.67;;;11.20;100.00
29063;BME280;71206;48.564;-123.458;2023-07-31T12:15:16;101364.68;;;11.31;100.00
29063;BME280;71206;48.564;-123.458;2023-07-31T12:17:41;101363.67;;;11.77;100.00